WetterOnline ( https://www.wetteronline.de )

Wetter aktuell Mittelndorf

Aktuelles Wetter: Lichtenhain/Mittelndorf (352m)

6-stündlich | Neueste Meldungen
Ortszeit Temperatur Wetter
Fr, 23.07. 20:00 22.2° C leicht bewölkt
Fr, 23.07. 14:00 23.3° C leicht bewölkt
Fr, 23.07. 8:00 16.6° C bedeckt
Fr, 23.07. 2:00 14.1° C bedeckt
Do, 22.07. 20:00 21.2° C bewölkt
Do, 22.07. 14:00 21.5° C leicht bewölkt
Do, 22.07. 8:00 14.5° C bedeckt
Do, 22.07. 2:00 13.5° C wolkig
Ortszeit Temperatur Wetter
Sa, 24.07. 1:00 18.1° C fast wolkenlos
Sa, 24.07. 0:50 18.1° C fast wolkenlos
Sa, 24.07. 0:40 18.3° C leicht bewölkt
Sa, 24.07. 0:30 18.3° C wolkenlos
Sa, 24.07. 0:20 18.3° C wolkenlos
Sa, 24.07. 0:10 18.6° C wolkenlos
Sa, 24.07. 0:00 18.8° C wolkenlos
Fr, 23.07. 23:30 18.9° C wolkenlos
Fr, 23.07. 23:00 19.0° C leicht bewölkt
Fr, 23.07. 22:30 19.8° C fast wolkenlos
Fr, 23.07. 22:00 20.2° C leicht bewölkt
Ortszeit Relative Feuchte Sichtweite
Fr, 23.07. 20:00 59% 35 km
Fr, 23.07. 14:00 47% 40 km
Fr, 23.07. 8:00 84% 30 km
Fr, 23.07. 2:00 90% 23 km
Do, 22.07. 20:00 55% 40 km
Do, 22.07. 14:00 48% 45 km
Do, 22.07. 8:00 93% 30 km
Do, 22.07. 2:00 89% 40 km
Ortszeit Relative Feuchte Sichtweite
Sa, 24.07. 1:00 73% 30 km
Sa, 24.07. 0:50 73% -
Sa, 24.07. 0:40 73% -
Sa, 24.07. 0:30 73% 30 km
Sa, 24.07. 0:20 73% -
Sa, 24.07. 0:10 71% -
Sa, 24.07. 0:00 70% 30 km
Fr, 23.07. 23:30 70% 30 km
Fr, 23.07. 23:00 70% 35 km
Fr, 23.07. 22:30 64% 40 km
Fr, 23.07. 22:00 64% 30 km
Ortszeit Niederschlagsmenge Niederschlagsart
Fr, 23.07. 20:00 0.0 l/m2 in 12 Std. -
Fr, 23.07. 14:00 0.0 l/m2 in 6 Std. -
Fr, 23.07. 8:00 0.0 l/m2 in 12 Std. -
Fr, 23.07. 2:00 0.0 l/m2 in 6 Std. -
Do, 22.07. 20:00 0.0 l/m2 in 12 Std. -
Do, 22.07. 14:00 0.0 l/m2 in 6 Std. -
Do, 22.07. 8:00 0.0 l/m2 in 12 Std. -
Do, 22.07. 2:00 0.0 l/m2 in 6 Std. -
Ortszeit Niederschlagsmenge Niederschlagsart
Sa, 24.07. 1:00 0.0 l/m2 in 1 Std. -
Sa, 24.07. 0:50 keine Meldung -
Sa, 24.07. 0:40 keine Meldung -
Sa, 24.07. 0:30 0.0 l/m2 in 1 Std. -
Sa, 24.07. 0:20 keine Meldung -
Sa, 24.07. 0:10 keine Meldung -
Sa, 24.07. 0:00 0.0 l/m2 in 1 Std. -
Fr, 23.07. 23:30 0.0 l/m2 in 1 Std. -
Fr, 23.07. 23:00 0.0 l/m2 in 1 Std. -
Fr, 23.07. 22:30 0.0 l/m2 in 1 Std. -
Fr, 23.07. 22:00 0.0 l/m2 in 1 Std. -
Ortszeit Stärke Spitze Richtung
km/h Bft. km/h Grad Sektor
Fr, 23.07. 20:00 14 3 22 50° NO
Fr, 23.07. 14:00 7 2 14 230° SW
Fr, 23.07. 8:00 2 1 7 80° O
Fr, 23.07. 2:00 4 1 11 130° SO
Do, 22.07. 20:00 7 2 22 40° NO
Do, 22.07. 14:00 18 3 25 210° SW
Do, 22.07. 8:00 4 1 7 130° SO
Do, 22.07. 2:00 4 1 11 120° SO
Ortszeit Stärke Spitze Richtung
km/h Bft. km/h Grad Sektor
Sa, 24.07. 1:00 9 2 15 90° O
Sa, 24.07. 0:50 9 2 - 90° O
Sa, 24.07. 0:40 9 2 - 90° O
Sa, 24.07. 0:30 9 2 11 100° O
Sa, 24.07. 0:20 9 2 - 100° O
Sa, 24.07. 0:10 9 2 - 100° O
Sa, 24.07. 0:00 11 2 14 100° O
Fr, 23.07. 23:30 11 2 15 100° O
Fr, 23.07. 23:00 9 2 15 90° O
Fr, 23.07. 22:30 11 2 14 80° O
Fr, 23.07. 22:00 11 2 14 70° O
Ortszeit Untergrenze Bedeckung Gattung
total tief tief mittel hoch
Fr, 23.07. 20:00 1800 m 4/8 4/8 - - -
Fr, 23.07. 14:00 1500 m 2/8 5/8 - - -
Fr, 23.07. 8:00 1800 m 8/8 8/8 - - -
Fr, 23.07. 2:00 1800 m 8/8 8/8 - - -
Do, 22.07. 20:00 1800 m 7/8 7/8 - - -
Do, 22.07. 14:00 1800 m 2/8 2/8 - - -
Do, 22.07. 8:00 1800 m 8/8 8/8 - - -
Do, 22.07. 2:00 1500 m 6/8 6/8 - - -
Ortszeit Bedeckungsgrad in Achtel und Wolkenuntergrenze
Sa, 24.07. 1:00 1(2400m)
Sa, 24.07. 0:50 1(2400m)
Sa, 24.07. 0:40 2(2400m)
Sa, 24.07. 0:30 keine Wolken
Sa, 24.07. 0:20 keine Wolken
Sa, 24.07. 0:10 keine Wolken
Sa, 24.07. 0:00 keine Wolken
Fr, 23.07. 23:30 keine Wolken
Fr, 23.07. 23:00 3(2100m)
Fr, 23.07. 22:30 1(2100m)
Fr, 23.07. 22:00 4(2100m)
Ortszeit Luftdruck NN (hPa) Tendenz (hPa in 3 Std.)
Fr, 23.07. 20:00 1014 - 0,6
Fr, 23.07. 14:00 1016 - 1,1
Fr, 23.07. 8:00 1018 - 0,5
Fr, 23.07. 2:00 1020 - 0,3
Do, 22.07. 20:00 1019 - 1,0
Do, 22.07. 14:00 1021 - 0,7
Do, 22.07. 8:00 1023 + 0,1
Do, 22.07. 2:00 1024 - 0,2
Ortszeit Luftdruck NN (hPa) Tendenz (hPa in 3 Std.)
Sa, 24.07. 1:00 1015 - 0,1
Sa, 24.07. 0:50 1015 keine Meldung
Sa, 24.07. 0:40 1015 keine Meldung
Sa, 24.07. 0:30 1015 0,0
Sa, 24.07. 0:20 1015 keine Meldung
Sa, 24.07. 0:10 1015 keine Meldung
Sa, 24.07. 0:00 1015 + 0,1
Fr, 23.07. 23:30 1015 + 0,2
Fr, 23.07. 23:00 1015 + 0,3
Fr, 23.07. 22:30 1015 + 0,2
Fr, 23.07. 22:00 1015 + 0,2
Ortszeit Schneehöhe (cm)
Fr, 23.07. 20:00 -
Fr, 23.07. 14:00 -
Fr, 23.07. 8:00 -
Fr, 23.07. 2:00 -
Do, 22.07. 20:00 -
Do, 22.07. 14:00 -
Do, 22.07. 8:00 -
Do, 22.07. 2:00 -
Ortszeit Schneehöhe (cm)
Sa, 24.07. 1:00 -
Sa, 24.07. 0:50 -
Sa, 24.07. 0:40 -
Sa, 24.07. 0:30 -
Sa, 24.07. 0:20 -
Sa, 24.07. 0:10 -
Sa, 24.07. 0:00 -
Fr, 23.07. 23:30 -
Fr, 23.07. 23:00 -
Fr, 23.07. 22:30 -
Fr, 23.07. 22:00 -
Link zu dieser Seite / Seite empfehlen

Das Wetter in ...